Time;durP1;ratioP1;P1;durP2;ratioP2;P2;SDS_P1;SDS_P2;PMS_P1;PMS_P2;Temp;Humidity;BMP_temperature;BMP_pressure;BME280_temperature;BME280_humidity;BME280_pressure;Samples;Min_cycle;Max_cycle;Signal;HPM_P1;HPM_P2
2021/08/18 00:00:44;;;;;;;15.90;11.37;;;17.10;99.90;;;;;;5013288;28;20410;-60
2021/08/18 00:03:10;;;;;;;18.30;12.03;;;17.10;99.90;;;;;;5012975;28;20683;-59
2021/08/18 00:05:38;;;;;;;14.90;12.20;;;17.10;99.90;;;;;;5013560;28;20417;-60
2021/08/18 00:08:27;;;;;;;16.03;11.93;;;17.20;99.90;;;;;;5013143;28;20412;-59
2021/08/18 00:10:52;;;;;;;14.90;11.50;;;17.20;99.90;;;;;;5013488;28;20509;-60
2021/08/18 00:13:22;;;;;;;16.07;11.93;;;17.20;99.90;;;;;;5013100;28;20519;-61
2021/08/18 00:15:48;;;;;;;14.83;11.43;;;17.00;99.90;;;;;;5013936;28;20175;-60
2021/08/18 00:18:14;;;;;;;17.60;12.10;;;17.00;99.90;;;;;;5015320;28;20467;-60
2021/08/18 00:20:39;;;;;;;14.10;10.90;;;17.10;99.90;;;;;;5013269;28;20179;-60
2021/08/18 00:23:05;;;;;;;17.53;10.13;;;17.20;99.90;;;;;;5013176;28;20193;-60
2021/08/18 00:25:31;;;;;;;14.27;11.40;;;17.30;99.90;;;;;;5013333;28;20184;-60
2021/08/18 00:27:57;;;;;;;14.67;11.70;;;17.30;99.90;;;;;;5013308;28;20182;-60
2021/08/18 00:30:23;;;;;;;18.40;13.63;;;17.40;99.90;;;;;;5012957;28;20441;-59
2021/08/18 00:32:49;;;;;;;14.90;11.90;;;17.30;99.90;;;;;;5013015;28;20218;-60
2021/08/18 00:35:14;;;;;;;14.67;10.83;;;17.40;99.90;;;;;;5013026;28;20753;-59
2021/08/18 00:37:40;;;;;;;14.43;11.30;;;17.30;99.90;;;;;;5012737;28;20169;-60
2021/08/18 00:40:06;;;;;;;14.70;11.97;;;17.20;99.90;;;;;;5014800;28;20544;-60
2021/08/18 00:42:34;;;;;;;15.27;10.60;;;17.20;99.90;;;;;;5016290;28;20725;-60
2021/08/18 00:44:59;;;;;;;16.23;13.07;;;17.30;99.90;;;;;;5016361;28;20414;-60
2021/08/18 00:47:25;;;;;;;17.27;12.60;;;17.20;99.90;;;;;;5016368;28;20411;-59
2021/08/18 00:49:51;;;;;;;16.87;11.17;;;17.20;99.90;;;;;;5016091;28;20198;-60
2021/08/18 00:52:16;;;;;;;17.90;12.50;;;17.30;99.90;;;;;;5016312;28;20569;-60
2021/08/18 00:54:42;;;;;;;15.10;12.27;;;17.20;99.90;;;;;;5015858;28;20170;-60
2021/08/18 00:57:08;;;;;;;13.70;11.70;;;17.10;99.90;;;;;;5016541;28;20533;-60
2021/08/18 00:59:34;;;;;;;14.13;12.03;;;17.20;99.90;;;;;;5016223;28;20171;-60
2021/08/18 01:02:01;;;;;;;18.13;12.47;;;17.10;99.90;;;;;;5015971;28;20484;-60
2021/08/18 01:04:27;;;;;;;16.67;12.73;;;17.10;99.90;;;;;;5016006;28;20415;-60
2021/08/18 01:06:53;;;;;;;15.87;12.27;;;17.10;99.90;;;;;;5015946;28;20494;-60
2021/08/18 01:09:20;;;;;;;17.47;12.13;;;17.10;99.90;;;;;;5015971;28;20172;-60
2021/08/18 01:11:50;;;;;;;17.00;11.83;;;17.00;99.90;;;;;;5015757;28;20202;-60
2021/08/18 01:14:16;;;;;;;16.70;12.20;;;17.00;99.90;;;;;;5015848;28;20414;-60
2021/08/18 01:16:44;;;;;;;19.80;12.87;;;16.90;99.90;;;;;;5015825;28;20405;-60
2021/08/18 01:19:12;;;;;;;17.97;13.43;;;16.80;99.90;;;;;;5014907;28;20921;-60
2021/08/18 01:21:41;;;;;;;16.10;11.60;;;16.80;99.90;;;;;;5016082;28;20495;-60
2021/08/18 01:24:09;;;;;;;17.10;12.07;;;16.70;99.90;;;;;;5015548;28;20410;-60
2021/08/18 01:26:37;;;;;;;19.03;12.50;;;16.80;99.90;;;;;;5015813;28;20421;-60
2021/08/18 01:29:04;;;;;;;16.60;12.57;;;17.00;99.90;;;;;;4998029;28;20429;-60
2021/08/18 01:31:30;;;;;;;16.60;13.30;;;16.90;99.90;;;;;;5015812;28;20837;-59
2021/08/18 01:33:59;;;;;;;13.50;11.90;;;16.80;99.90;;;;;;5015808;28;20459;-60
2021/08/18 01:36:25;;;;;;;19.00;13.47;;;16.70;99.90;;;;;;5015536;28;20177;-60
2021/08/18 01:38:51;;;;;;;18.50;12.93;;;16.80;99.90;;;;;;5015252;28;20439;-60
2021/08/18 01:41:17;;;;;;;17.03;13.03;;;16.80;99.90;;;;;;5015620;28;20444;-60
2021/08/18 01:43:42;;;;;;;20.80;13.93;;;16.80;99.90;;;;;;5015380;28;20181;-60
2021/08/18 01:46:10;;;;;;;19.33;14.07;;;16.60;99.90;;;;;;5015208;28;20180;-60
2021/08/18 01:48:36;;;;;;;16.73;12.57;;;16.70;99.90;;;;;;5014856;28;20184;-59
2021/08/18 01:51:06;;;;;;;17.80;13.63;;;16.90;99.90;;;;;;5014763;28;20442;-60
2021/08/18 01:53:35;;;;;;;17.87;13.30;;;17.00;99.90;;;;;;5015422;28;20505;-60
2021/08/18 01:56:12;;;;;;;20.20;13.10;;;17.10;99.90;;;;;;4997606;28;20414;-60
2021/08/18 01:58:38;;;;;;;17.83;13.03;;;17.10;99.90;;;;;;5015024;28;20390;-60
2021/08/18 02:01:06;;;;;;;17.97;13.27;;;17.20;99.90;;;;;;5015232;28;20529;-60
2021/08/18 02:03:32;;;;;;;19.40;14.57;;;17.20;99.90;;;;;;5014645;28;20439;-60
2021/08/18 02:05:57;;;;;;;17.00;13.83;;;17.00;99.90;;;;;;5015060;28;20441;-60
2021/08/18 02:08:23;;;;;;;18.10;12.33;;;17.00;99.90;;;;;;5014934;28;20523;-60
2021/08/18 02:10:48;;;;;;;17.13;13.67;;;17.00;99.90;;;;;;5015066;28;20207;-60
2021/08/18 02:13:14;;;;;;;19.10;13.33;;;16.80;99.90;;;;;;5014805;28;20660;-59
2021/08/18 02:15:40;;;;;;;15.50;11.87;;;16.90;99.90;;;;;;5015000;28;20216;-60
2021/08/18 02:20:43;;;;;;;16.40;12.10;;;16.90;99.90;;;;;;5289179;22;20221;-60
2021/08/18 02:23:09;;;;;;;17.73;12.40;;;16.80;99.90;;;;;;5029494;28;20455;-59
2021/08/18 02:25:35;;;;;;;15.90;12.37;;;16.80;99.90;;;;;;5020263;28;20414;-60
2021/08/18 02:28:04;;;;;;;17.47;13.03;;;16.80;99.90;;;;;;5028051;28;20645;-60
2021/08/18 02:30:30;;;;;;;16.97;12.90;;;16.70;99.90;;;;;;5033377;28;20476;-59
2021/08/18 02:32:56;;;;;;;18.37;13.50;;;16.80;99.90;;;;;;5032742;28;20811;-59
2021/08/18 02:35:23;;;;;;;18.33;13.00;;;16.80;99.90;;;;;;5044544;22;20492;-60
2021/08/18 02:37:51;;;;;;;15.70;12.57;;;16.80;99.90;;;;;;5026024;28;20415;-59
2021/08/18 02:40:19;;;;;;;19.40;14.17;;;17.00;99.90;;;;;;4998107;28;20482;-60
2021/08/18 02:42:50;;;;;;;16.60;13.20;;;16.90;99.90;;;;;;5014275;28;20469;-60
2021/08/18 02:45:16;;;;;;;17.50;13.40;;;16.90;99.90;;;;;;5014121;28;20576;-60
2021/08/18 02:47:42;;;;;;;13.00;11.03;;;16.80;99.90;;;;;;5014222;28;20398;-60
2021/08/18 02:50:10;;;;;;;15.50;11.63;;;17.00;99.90;;;;;;5013592;28;20535;-56
2021/08/18 02:52:36;;;;;;;16.57;12.37;;;17.10;99.90;;;;;;5013872;28;20414;-60
2021/08/18 02:55:02;;;;;;;15.53;11.50;;;17.10;99.90;;;;;;5014003;28;20927;-60
2021/08/18 02:57:28;;;;;;;17.37;13.57;;;17.20;99.90;;;;;;5013800;28;20171;-60
2021/08/18 02:59:55;;;;;;;16.50;11.47;;;17.40;99.90;;;;;;5013674;28;20920;-60
2021/08/18 03:02:22;;;;;;;15.30;11.80;;;17.30;99.90;;;;;;5013462;28;20181;-60
2021/08/18 03:04:47;;;;;;;15.23;11.60;;;17.30;99.90;;;;;;5017226;28;20463;-60
2021/08/18 03:07:13;;;;;;;15.90;12.43;;;17.40;99.90;;;;;;5034108;28;20444;-60
2021/08/18 03:09:38;;;;;;;15.40;12.17;;;17.20;99.90;;;;;;5033285;28;20601;-59
2021/08/18 03:12:05;;;;;;;14.03;11.47;;;17.20;99.90;;;;;;5033253;28;20198;-60
2021/08/18 03:14:30;;;;;;;14.90;12.57;;;17.10;99.90;;;;;;5033173;28;20196;-60
2021/08/18 03:16:56;;;;;;;16.20;12.63;;;17.20;99.90;;;;;;5033211;28;20401;-60
2021/08/18 03:19:21;;;;;;;15.77;12.47;;;17.10;99.90;;;;;;5032942;28;20511;-60
2021/08/18 03:21:47;;;;;;;14.97;11.27;;;17.20;99.90;;;;;;5033189;28;20170;-56
2021/08/18 03:24:13;;;;;;;18.33;13.33;;;17.20;99.90;;;;;;5033029;28;20178;-57
2021/08/18 03:26:39;;;;;;;14.60;11.27;;;17.20;99.90;;;;;;5033136;28;20177;-60
2021/08/18 03:29:05;;;;;;;14.17;11.70;;;17.00;99.90;;;;;;5033119;28;20175;-60
2021/08/18 03:31:30;;;;;;;14.20;11.13;;;17.10;99.90;;;;;;5032997;28;20449;-60
2021/08/18 03:33:56;;;;;;;13.10;10.17;;;17.20;99.90;;;;;;5032850;28;20171;-60
2021/08/18 03:36:22;;;;;;;13.10;10.93;;;17.30;99.90;;;;;;5032575;28;20209;-60
2021/08/18 03:38:47;;;;;;;13.07;10.50;;;17.20;99.90;;;;;;5033433;28;20166;-60
2021/08/18 03:41:13;;;;;;;15.77;11.87;;;17.20;99.90;;;;;;5033226;28;20183;-60
2021/08/18 03:43:39;;;;;;;12.90;10.17;;;17.20;99.90;;;;;;5032986;28;20701;-60
2021/08/18 03:46:04;;;;;;;15.60;11.47;;;17.20;99.90;;;;;;5032866;28;20240;-60
2021/08/18 03:48:30;;;;;;;14.00;10.07;;;17.30;99.90;;;;;;5033409;28;20173;-60
2021/08/18 03:50:55;;;;;;;14.50;10.57;;;17.30;99.90;;;;;;5032399;28;20620;-60
2021/08/18 03:53:21;;;;;;;13.27;10.97;;;17.30;99.90;;;;;;5032841;28;20169;-60
2021/08/18 03:55:46;;;;;;;13.13;10.30;;;17.30;99.90;;;;;;5015109;28;20192;-60
2021/08/18 03:58:12;;;;;;;13.83;11.27;;;17.30;99.90;;;;;;5032881;28;20164;-60
2021/08/18 04:00:38;;;;;;;12.93;10.27;;;17.30;99.90;;;;;;5032934;28;20177;-59
2021/08/18 04:03:03;;;;;;;14.90;10.70;;;17.20;99.90;;;;;;5032748;28;20174;-58
2021/08/18 04:05:29;;;;;;;13.53;10.63;;;17.20;99.90;;;;;;5032557;28;20195;-60
2021/08/18 04:07:55;;;;;;;13.27;10.00;;;17.30;99.90;;;;;;5032740;28;20174;-60
2021/08/18 04:10:21;;;;;;;14.37;9.47;;;17.30;99.90;;;;;;5032652;28;20197;-60
2021/08/18 04:12:57;;;;;;;10.30;9.10;;;16.90;99.90;;;;;;5033021;28;20172;-60
2021/08/18 04:15:27;;;;;;;11.40;8.87;;;16.80;99.90;;;;;;5035383;28;20571;-60
2021/08/18 04:17:53;;;;;;;10.00;8.53;;;16.90;99.90;;;;;;5036729;28;20397;-60
2021/08/18 04:20:19;;;;;;;10.60;8.70;;;17.00;99.90;;;;;;5035850;28;20908;-60
2021/08/18 04:22:46;;;;;;;10.90;8.40;;;17.00;99.90;;;;;;5035774;28;20174;-60
2021/08/18 04:25:14;;;;;;;10.10;7.83;;;17.10;99.90;;;;;;5036434;28;20522;-60
2021/08/18 04:27:40;;;;;;;9.70;7.83;;;17.00;99.90;;;;;;5036173;28;20405;-60
2021/08/18 04:30:06;;;;;;;10.63;8.53;;;17.00;99.90;;;;;;5036752;28;20410;-60
2021/08/18 04:32:32;;;;;;;8.93;7.80;;;17.10;99.90;;;;;;5036056;28;20399;-61
2021/08/18 04:34:58;;;;;;;8.80;7.50;;;17.20;99.90;;;;;;5035901;28;20823;-60
2021/08/18 04:37:23;;;;;;;11.43;8.60;;;17.40;99.90;;;;;;5018590;28;20422;-60
2021/08/18 04:39:49;;;;;;;10.00;8.13;;;17.30;99.90;;;;;;5036248;28;20570;-60
2021/08/18 04:42:15;;;;;;;7.60;6.90;;;16.90;99.90;;;;;;5036686;28;20186;-60
2021/08/18 04:44:40;;;;;;;8.53;6.87;;;17.10;99.90;;;;;;5036388;28;20568;-60
2021/08/18 04:47:06;;;;;;;8.43;7.23;;;17.10;99.90;;;;;;5035967;28;20185;-60
2021/08/18 04:49:31;;;;;;;8.60;7.40;;;17.20;99.90;;;;;;5035623;28;20183;-59
2021/08/18 04:51:57;;;;;;;8.83;7.30;;;17.30;99.90;;;;;;5035781;28;20194;-58
2021/08/18 04:54:22;;;;;;;8.87;7.67;;;17.30;99.90;;;;;;5035913;28;20167;-57
2021/08/18 04:56:48;;;;;;;11.73;8.30;;;17.30;99.90;;;;;;5036094;28;20162;-58
2021/08/18 04:59:13;;;;;;;11.67;7.60;;;17.40;99.90;;;;;;5035761;28;20266;-59
2021/08/18 05:01:39;;;;;;;10.33;7.50;;;17.30;99.90;;;;;;5036409;28;20169;-59
2021/08/18 05:04:07;;;;;;;11.43;8.63;;;17.30;99.90;;;;;;5035395;28;20204;-60
2021/08/18 05:06:33;;;;;;;9.07;7.27;;;17.30;99.90;;;;;;5035458;28;20184;-59
2021/08/18 05:08:59;;;;;;;8.83;7.13;;;17.30;99.90;;;;;;5035849;28;20422;-59
2021/08/18 05:11:24;;;;;;;8.07;7.00;;;17.30;99.90;;;;;;5035706;28;20794;-60
2021/08/18 05:13:50;;;;;;;9.87;8.30;;;17.10;99.90;;;;;;5035489;28;20172;-59
2021/08/18 05:16:15;;;;;;;9.70;7.60;;;16.90;99.90;;;;;;5035271;28;20248;-59
2021/08/18 05:18:41;;;;;;;9.10;7.80;;;17.10;99.90;;;;;;5035396;28;20748;-60
2021/08/18 05:21:07;;;;;;;10.33;7.47;;;17.20;99.90;;;;;;5034814;28;20174;-58
2021/08/18 05:23:32;;;;;;;9.00;7.97;;;17.20;99.90;;;;;;5035366;28;20175;-58
2021/08/18 05:25:58;;;;;;;9.10;7.47;;;17.10;99.90;;;;;;5034010;28;20186;-59
2021/08/18 05:28:24;;;;;;;7.77;6.57;;;17.20;99.90;;;;;;5035144;28;20170;-57
2021/08/18 05:30:50;;;;;;;9.07;6.70;;;17.40;99.90;;;;;;5023793;28;20244;-59
2021/08/18 05:33:15;;;;;;;8.03;6.63;;;17.30;99.90;;;;;;5034805;28;20774;-59
2021/08/18 05:35:41;;;;;;;7.07;6.33;;;17.40;99.90;;;;;;5034558;28;20217;-60
2021/08/18 05:38:07;;;;;;;12.27;7.00;;;17.50;99.90;;;;;;5036210;28;20165;-60
2021/08/18 05:40:33;;;;;;;7.87;6.90;;;17.50;99.90;;;;;;5036366;28;20164;-58
2021/08/18 05:42:58;;;;;;;8.33;7.00;;;17.70;99.90;;;;;;5036102;28;20173;-59
2021/08/18 05:45:24;;;;;;;7.13;6.37;;;17.60;99.90;;;;;;5039418;28;20440;-58
2021/08/18 05:47:50;;;;;;;6.60;5.90;;;17.50;99.90;;;;;;5039204;28;20608;-59
2021/08/18 05:50:15;;;;;;;8.50;6.00;;;17.50;99.90;;;;;;5034034;28;20274;-58
2021/08/18 05:52:41;;;;;;;6.57;5.97;;;17.10;99.90;;;;;;5034580;28;20177;-61
2021/08/18 05:55:07;;;;;;;6.70;5.70;;;17.10;99.90;;;;;;5034605;28;20195;-59
2021/08/18 05:57:34;;;;;;;8.50;5.60;;;17.10;99.90;;;;;;5034563;28;20192;-59
2021/08/18 05:59:59;;;;;;;6.83;4.97;;;17.20;99.90;;;;;;5034621;28;20406;-59
2021/08/18 06:02:25;;;;;;;6.30;5.20;;;17.40;99.90;;;;;;5034508;28;20408;-56
2021/08/18 06:04:51;;;;;;;8.10;5.77;;;17.40;99.90;;;;;;5033772;28;20194;-63
2021/08/18 06:07:16;;;;;;;5.60;4.77;;;17.60;99.90;;;;;;5034251;28;20173;-61
2021/08/18 06:09:42;;;;;;;6.30;4.60;;;17.60;99.90;;;;;;5034252;28;20223;-61
2021/08/18 06:12:08;;;;;;;7.63;5.23;;;17.70;99.90;;;;;;5034180;28;20276;-61
2021/08/18 06:14:35;;;;;;;5.67;5.10;;;17.80;99.90;;;;;;5034058;28;20473;-61
2021/08/18 06:17:00;;;;;;;6.37;4.93;;;17.90;99.90;;;;;;5034480;28;20652;-61
2021/08/18 06:19:26;;;;;;;8.00;4.90;;;18.10;99.90;;;;;;5034026;28;20413;-62
2021/08/18 06:21:52;;;;;;;5.23;4.00;;;18.10;99.90;;;;;;5033136;28;20224;-61
2021/08/18 06:24:28;;;;;;;5.40;4.40;;;18.20;99.90;;;;;;5034238;28;20170;-57
2021/08/18 06:26:55;;;;;;;5.03;4.60;;;18.20;99.90;;;;;;5034322;28;20535;-60
2021/08/18 06:29:21;;;;;;;5.80;4.47;;;18.30;99.90;;;;;;5034372;28;20410;-61
2021/08/18 06:31:48;;;;;;;6.53;4.93;;;18.30;99.90;;;;;;5034103;28;20484;-61
2021/08/18 06:34:14;;;;;;;7.37;5.00;;;17.80;99.90;;;;;;5034334;28;20410;-61
2021/08/18 06:36:40;;;;;;;5.80;5.17;;;17.90;99.90;;;;;;5033152;28;20940;-61
2021/08/18 06:39:05;;;;;;;7.00;5.60;;;18.00;99.90;;;;;;5033208;28;20404;-62
2021/08/18 06:41:31;;;;;;;6.57;5.60;;;17.90;99.90;;;;;;5031944;28;20181;-62
2021/08/18 06:43:57;;;;;;;7.33;5.03;;;18.10;99.90;;;;;;5022698;28;20184;-62
2021/08/18 06:46:22;;;;;;;8.30;5.87;;;18.30;99.90;;;;;;5033640;28;20240;-62
2021/08/18 06:48:48;;;;;;;5.70;4.60;;;18.20;99.90;;;;;;5033409;28;20189;-67
2021/08/18 06:51:15;;;;;;;6.13;5.00;;;18.30;99.90;;;;;;5032899;28;20194;-61
2021/08/18 06:53:42;;;;;;;5.63;5.13;;;18.40;99.90;;;;;;5033922;28;20208;-59
2021/08/18 06:56:08;;;;;;;8.20;5.87;;;18.60;99.90;;;;;;5034054;28;20433;-58
2021/08/18 06:58:34;;;;;;;7.70;6.17;;;18.60;99.90;;;;;;5033610;28;20397;-58
2021/08/18 07:00:59;;;;;;;9.30;5.90;;;18.70;99.90;;;;;;5033622;28;20185;-61
2021/08/18 07:03:25;;;;;;;8.47;5.80;;;18.90;99.90;;;;;;5033279;28;20171;-60
2021/08/18 07:05:51;;;;;;;6.47;5.87;;;18.80;99.90;;;;;;5032926;28;20274;-58
2021/08/18 07:08:16;;;;;;;6.70;5.17;;;18.50;99.90;;;;;;5033486;28;20188;-57
2021/08/18 07:10:42;;;;;;;7.53;6.70;;;18.50;99.90;;;;;;5033776;28;20660;-57
2021/08/18 07:13:08;;;;;;;5.83;5.20;;;18.50;99.90;;;;;;5030907;28;20167;-57
2021/08/18 07:15:33;;;;;;;6.30;5.50;;;18.60;99.90;;;;;;5033459;28;20198;-59
2021/08/18 07:18:01;;;;;;;6.47;5.00;;;18.80;99.90;;;;;;5033607;28;20177;-59
2021/08/18 07:20:26;;;;;;;5.50;4.90;;;19.00;99.90;;;;;;5031649;28;20500;-60
2021/08/18 07:22:52;;;;;;;6.20;5.27;;;19.40;99.90;;;;;;5033168;28;20195;-57
2021/08/18 07:25:18;;;;;;;8.40;5.03;;;19.30;99.90;;;;;;5033360;28;20205;-58
2021/08/18 07:27:43;;;;;;;5.00;4.50;;;19.50;99.90;;;;;;5033232;28;20259;-60
2021/08/18 07:30:09;;;;;;;4.60;4.13;;;19.70;99.90;;;;;;5033283;28;20266;-60
2021/08/18 07:32:37;;;;;;;5.20;4.33;;;19.50;99.90;;;;;;5032851;28;20217;-60
2021/08/18 07:35:03;;;;;;;6.37;4.00;;;19.30;99.90;;;;;;5032862;28;20453;-59
2021/08/18 07:37:30;;;;;;;5.60;4.27;;;19.40;99.90;;;;;;5032621;28;20438;-58
2021/08/18 07:39:56;;;;;;;6.10;4.00;;;19.30;99.90;;;;;;5032853;28;20410;-58
2021/08/18 07:42:22;;;;;;;4.30;3.90;;;19.20;99.90;;;;;;5032859;28;20409;-60
2021/08/18 07:44:48;;;;;;;4.07;3.67;;;19.40;99.90;;;;;;5032691;28;20437;-61
2021/08/18 07:47:13;;;;;;;3.70;3.30;;;19.50;99.90;;;;;;5032629;28;20426;-61
2021/08/18 07:49:39;;;;;;;5.60;3.70;;;19.80;99.90;;;;;;5034267;28;20178;-61
2021/08/18 07:52:05;;;;;;;4.50;3.50;;;19.90;99.90;;;;;;5036708;28;20187;-61
2021/08/18 07:54:31;;;;;;;3.23;2.70;;;20.10;99.90;;;;;;5036879;28;20197;-59
2021/08/18 07:56:57;;;;;;;4.30;3.63;;;20.10;99.90;;;;;;5036711;28;20402;-56
2021/08/18 07:59:22;;;;;;;4.30;2.83;;;20.20;99.90;;;;;;5037014;28;20410;-54
2021/08/18 08:01:48;;;;;;;4.03;2.90;;;19.50;99.90;;;;;;5036653;28;20175;-60
2021/08/18 08:04:14;;;;;;;3.37;3.07;;;19.30;99.90;;;;;;5018619;28;20194;-60
2021/08/18 08:06:39;;;;;;;3.77;3.37;;;19.20;99.90;;;;;;5036505;28;20228;-59
2021/08/18 08:09:05;;;;;;;2.80;2.40;;;19.40;99.90;;;;;;5036345;28;20179;-60
2021/08/18 08:11:31;;;;;;;5.90;3.17;;;19.70;99.90;;;;;;5036534;28;20547;-59
2021/08/18 08:13:56;;;;;;;2.70;2.50;;;19.60;99.90;;;;;;5036319;28;20250;-60
2021/08/18 08:16:22;;;;;;;3.20;2.40;;;19.30;99.90;;;;;;5036140;28;20493;-60
2021/08/18 08:18:48;;;;;;;3.33;2.57;;;19.40;99.90;;;;;;5036173;28;20213;-60
2021/08/18 08:21:14;;;;;;;7.33;2.93;;;19.20;99.90;;;;;;5035631;28;20175;-60
2021/08/18 08:23:41;;;;;;;4.47;1.83;;;19.60;99.90;;;;;;5036166;28;20167;-60
2021/08/18 08:26:07;;;;;;;2.40;1.50;;;19.50;99.90;;;;;;5036243;28;20793;-60
2021/08/18 08:28:32;;;;;;;4.20;1.70;;;19.40;99.90;;;;;;5036017;28;20402;-60
2021/08/18 08:30:58;;;;;;;1.30;1.20;;;19.30;99.90;;;;;;5036175;28;20651;-60
2021/08/18 08:33:24;;;;;;;3.03;1.70;;;19.60;99.90;;;;;;5036019;28;20168;-61
2021/08/18 08:35:49;;;;;;;1.40;1.10;;;19.70;99.90;;;;;;5058777;22;20703;-59
2021/08/18 08:38:16;;;;;;;1.57;1.33;;;19.90;99.90;;;;;;5036088;28;20169;-58
2021/08/18 08:40:44;;;;;;;1.40;1.30;;;19.80;99.90;;;;;;5030351;28;20171;-59
2021/08/18 08:43:13;;;;;;;2.40;1.40;;;19.90;99.90;;;;;;5016358;28;20427;-57
2021/08/18 08:45:46;;;;;;;1.33;1.20;;;19.90;99.90;;;;;;5016180;28;20425;-55
2021/08/18 08:48:16;;;;;;;1.53;1.33;;;19.90;99.90;;;;;;5016305;28;20410;-58
2021/08/18 08:50:44;;;;;;;2.40;1.17;;;19.90;99.90;;;;;;5015427;28;20442;-59
2021/08/18 08:53:10;;;;;;;1.17;1.07;;;19.90;99.90;;;;;;5015979;28;20915;-58
2021/08/18 08:55:35;;;;;;;1.57;1.20;;;19.90;99.90;;;;;;5015942;28;20415;-57
2021/08/18 08:58:01;;;;;;;1.40;1.30;;;20.00;99.90;;;;;;5015891;28;20168;-59
2021/08/18 09:00:27;;;;;;;1.90;1.30;;;19.60;99.90;;;;;;5016223;28;20179;-59
2021/08/18 09:03:17;;;;;;;1.63;1.30;;;19.60;99.90;;;;;;5016249;28;20169;-58
2021/08/18 09:05:46;;;;;;;1.33;1.23;;;20.00;99.90;;;;;;5015427;28;20203;-59
2021/08/18 09:08:18;;;;;;;1.30;1.20;;;20.00;99.90;;;;;;5007125;28;20462;-59
2021/08/18 09:11:09;;;;;;;1.40;1.30;;;20.10;99.90;;;;;;4996324;28;20526;-59
2021/08/18 09:13:50;;;;;;;2.00;1.20;;;19.90;99.90;;;;;;4996149;28;20408;-58
2021/08/18 09:16:18;;;;;;;2.00;1.17;;;20.20;99.90;;;;;;4995867;28;20605;-59
2021/08/18 09:18:52;;;;;;;1.87;1.57;;;20.20;99.90;;;;;;4995925;28;20458;-59
2021/08/18 09:21:36;;;;;;;1.30;0.97;;;19.90;99.90;;;;;;4995807;28;20795;-59
2021/08/18 09:24:16;;;;;;;2.20;1.10;;;19.80;99.90;;;;;;4995885;28;20404;-59
2021/08/18 09:26:55;;;;;;;1.57;0.97;;;19.80;99.90;;;;;;4996265;28;20426;-59
2021/08/18 09:29:33;;;;;;;1.97;1.20;;;19.80;99.90;;;;;;4995788;28;20376;-59
2021/08/18 09:32:27;;;;;;;1.30;1.13;;;19.60;99.90;;;;;;4995547;28;20443;-59
2021/08/18 09:35:09;;;;;;;2.30;1.10;;;19.70;99.90;;;;;;4995586;28;20458;-59
2021/08/18 09:37:36;;;;;;;1.10;0.70;;;19.70;99.90;;;;;;5015193;28;20526;-59
2021/08/18 09:40:15;;;;;;;1.17;1.00;;;19.60;99.90;;;;;;5015073;28;20399;-59
2021/08/18 09:42:41;;;;;;;1.20;0.97;;;19.60;99.90;;;;;;5015390;28;20395;-59
2021/08/18 09:45:09;;;;;;;1.00;0.80;;;20.00;99.90;;;;;;5015077;28;20422;-59
2021/08/18 09:47:49;;;;;;;2.70;0.97;;;20.20;99.90;;;;;;5015667;28;20921;-59
2021/08/18 09:50:15;;;;;;;0.80;0.70;;;20.60;99.90;;;;;;5014544;28;20391;-58
2021/08/18 09:52:41;;;;;;;2.00;0.80;;;21.00;99.90;;;;;;5014835;28;20414;-59
2021/08/18 09:55:07;;;;;;;1.47;0.70;;;21.40;99.90;;;;;;5014963;28;20426;-60
2021/08/18 09:57:32;;;;;;;1.40;0.80;;;21.60;99.90;;;;;;4997294;28;20217;-59
2021/08/18 09:59:59;;;;;;;0.80;0.60;;;21.80;99.90;;;;;;5014694;28;20411;-59
2021/08/18 10:02:25;;;;;;;1.30;0.60;;;21.90;99.90;;;;;;5014775;28;20176;-59
2021/08/18 10:04:51;;;;;;;1.00;0.77;;;22.00;99.90;;;;;;5014463;28;20545;-58
2021/08/18 10:07:17;;;;;;;1.00;0.87;;;22.10;99.90;;;;;;4991668;28;20514;-59
2021/08/18 10:09:43;;;;;;;1.47;0.83;;;22.10;99.90;;;;;;4975879;28;20169;-59
2021/08/18 10:12:09;;;;;;;0.90;0.80;;;22.10;99.90;;;;;;4974834;28;20488;-60
2021/08/18 10:14:36;;;;;;;1.30;0.70;;;22.20;99.90;;;;;;4975515;28;20449;-60
2021/08/18 10:17:01;;;;;;;0.90;0.70;;;22.40;99.90;;;;;;4975435;28;20192;-60
2021/08/18 10:19:27;;;;;;;1.00;0.90;;;22.50;99.90;;;;;;4975157;28;20780;-60
2021/08/18 10:22:00;;;;;;;0.90;0.67;;;22.60;99.90;;;;;;4975219;28;20661;-60
2021/08/18 10:24:32;;;;;;;1.57;0.70;;;22.30;99.90;;;;;;4975808;28;20606;-60
2021/08/18 10:26:58;;;;;;;0.90;0.70;;;22.00;99.90;;;;;;4975642;28;20432;-59
2021/08/18 10:29:32;;;;;;;1.00;0.70;;;22.00;99.90;;;;;;4975620;28;20416;-60
2021/08/18 10:32:00;;;;;;;1.47;0.77;;;22.10;99.90;;;;;;4975576;28;20288;-59
2021/08/18 10:34:43;;;;;;;0.73;0.53;;;21.90;99.90;;;;;;4975569;28;20778;-60
2021/08/18 10:37:25;;;;;;;1.43;1.00;;;21.50;99.90;;;;;;5011355;28;20447;-60
2021/08/18 10:39:54;;;;;;;1.37;0.90;;;21.30;99.90;;;;;;5013948;28;20419;-60
2021/08/18 10:42:25;;;;;;;1.83;0.90;;;21.40;99.90;;;;;;5014342;28;20765;-60
2021/08/18 10:44:53;;;;;;;1.00;0.90;;;21.10;99.90;;;;;;5007019;28;20408;-59
2021/08/18 10:47:28;;;;;;;1.10;0.90;;;21.00;99.90;;;;;;4994455;28;20428;-60
2021/08/18 10:50:12;;;;;;;2.23;1.33;;;20.90;99.90;;;;;;4994378;28;20393;-57
2021/08/18 10:52:41;;;;;;;1.13;0.93;;;21.20;99.90;;;;;;4994319;28;20466;-60
2021/08/18 10:55:25;;;;;;;1.23;1.07;;;21.40;99.90;;;;;;4994173;28;20427;-60
2021/08/18 10:57:54;;;;;;;1.93;1.20;;;21.90;99.90;;;;;;4994447;28;20406;-60
2021/08/18 11:00:37;;;;;;;1.00;0.90;;;22.60;99.90;;;;;;4994507;28;20438;-59
2021/08/18 11:03:16;;;;;;;1.83;1.00;;;22.70;99.90;;;;;;4994472;28;20903;-61
2021/08/18 11:05:51;;;;;;;1.43;1.30;;;22.90;99.90;;;;;;5000648;28;20502;-59
2021/08/18 11:08:24;;;;;;;2.87;1.17;;;22.80;99.90;;;;;;5014125;28;20508;-60
2021/08/18 11:10:53;;;;;;;1.60;1.50;;;22.50;99.90;;;;;;5013937;28;20537;-60
2021/08/18 11:13:44;;;;;;;1.47;1.37;;;22.20;99.90;;;;;;5013779;28;20407;-60
2021/08/18 11:16:31;;;;;;;1.53;1.23;;;21.70;99.90;;;;;;5013800;28;20479;-59
2021/08/18 11:19:00;;;;;;;1.33;1.23;;;21.20;99.90;;;;;;5013880;28;20399;-60
2021/08/18 11:21:35;;;;;;;2.13;1.70;;;20.90;99.90;;;;;;5013109;28;20781;-60
2021/08/18 11:24:01;;;;;;;2.73;1.37;;;20.60;99.90;;;;;;5012615;28;20387;-60
2021/08/18 11:26:30;;;;;;;1.50;1.40;;;20.50;99.90;;;;;;5013523;28;20764;-60
2021/08/18 11:29:02;;;;;;;1.60;1.27;;;20.50;99.90;;;;;;5013325;28;20825;-60
2021/08/18 11:31:31;;;;;;;2.50;1.30;;;20.20;99.90;;;;;;5013232;28;20481;-60
2021/08/18 11:33:56;;;;;;;3.00;1.70;;;20.20;99.90;;;;;;5013415;28;20403;-60
2021/08/18 11:36:24;;;;;;;2.50;1.60;;;20.20;99.90;;;;;;5012461;28;20481;-60
2021/08/18 11:39:00;;;;;;;2.60;1.90;;;20.20;99.90;;;;;;5013071;28;20169;-58
2021/08/18 11:41:39;;;;;;;1.73;1.57;;;20.80;99.90;;;;;;5013705;28;20414;-60
2021/08/18 11:44:05;;;;;;;1.93;1.83;;;21.40;99.90;;;;;;5013173;28;20407;-60
2021/08/18 11:46:31;;;;;;;2.57;1.20;;;21.90;99.90;;;;;;5013181;28;20513;-59
2021/08/18 11:49:04;;;;;;;1.77;1.40;;;23.60;99.90;;;;;;5014257;28;20586;-59
2021/08/18 11:51:30;;;;;;;1.40;1.30;;;26.00;99.90;;;;;;5012468;28;20191;-59
2021/08/18 11:53:55;;;;;;;2.23;2.03;;;27.20;99.70;;;;;;5012748;28;20856;-60
2021/08/18 11:56:26;;;;;;;1.50;1.40;;;26.00;99.90;;;;;;5012926;28;20494;-60
2021/08/18 11:59:06;;;;;;;1.90;1.40;;;24.90;99.90;;;;;;5012889;28;20160;-60
2021/08/18 12:01:33;;;;;;;1.43;1.33;;;24.70;99.90;;;;;;5013112;28;20751;-60
2021/08/18 12:04:03;;;;;;;1.73;1.50;;;24.00;99.90;;;;;;5013262;28;20414;-60
2021/08/18 12:06:34;;;;;;;1.60;1.50;;;23.50;99.90;;;;;;5012292;28;20438;-60
2021/08/18 12:09:01;;;;;;;1.43;1.33;;;23.30;99.90;;;;;;5012845;28;20928;-59
2021/08/18 12:11:35;;;;;;;2.33;1.90;;;22.90;99.90;;;;;;5012552;28;20939;-59
2021/08/18 12:14:09;;;;;;;1.70;1.60;;;22.80;99.90;;;;;;5013118;28;20414;-60
2021/08/18 12:16:35;;;;;;;1.43;1.33;;;22.40;99.90;;;;;;5013009;28;20414;-60
2021/08/18 12:19:19;;;;;;;2.37;1.90;;;22.40;99.90;;;;;;5012906;28;20406;-60
2021/08/18 12:22:04;;;;;;;2.30;1.87;;;22.30;99.90;;;;;;5012388;28;20195;-60
2021/08/18 12:24:30;;;;;;;2.27;1.70;;;22.30;99.90;;;;;;5012877;28;20736;-60
2021/08/18 12:27:01;;;;;;;3.60;1.40;;;22.00;99.90;;;;;;5012769;28;20426;-60
2021/08/18 12:29:28;;;;;;;1.33;1.20;;;22.10;99.90;;;;;;5013587;28;20430;-59
2021/08/18 12:32:09;;;;;;;2.28;1.58;;;22.50;99.90;;;;;;5012555;28;20422;-59
2021/08/18 12:34:46;;;;;;;4.00;1.23;;;22.90;99.90;;;;;;5012608;28;20164;-60
2021/08/18 12:37:21;;;;;;;2.00;1.17;;;23.30;99.90;;;;;;5015453;28;20426;-59
2021/08/18 12:39:57;;;;;;;1.33;1.00;;;23.50;99.90;;;;;;5016188;28;20537;-60
2021/08/18 12:42:29;;;;;;;1.50;1.40;;;24.10;99.90;;;;;;5016459;28;20816;-59
2021/08/18 12:45:11;;;;;;;1.47;1.10;;;24.30;99.90;;;;;;5016353;28;20406;-60
2021/08/18 12:47:39;;;;;;;1.00;0.90;;;24.00;99.90;;;;;;5016431;28;20477;-57